sensor_id;sensor_type;location;lat;lon;timestamp;pressure;altitude;pressure_sealevel;temperature;humidity
76126;BME280;65174;48.138;21.002;2022-12-07T00:00:28;99153.94;;;0.90;90.36
76126;BME280;65174;48.138;21.002;2022-12-07T00:03:30;99158.09;;;0.92;91.00
76126;BME280;65174;48.138;21.002;2022-12-07T00:06:33;99164.03;;;0.91;89.72
76126;BME280;65174;48.138;21.002;2022-12-07T00:09:35;99155.38;;;0.97;89.52
76126;BME280;65174;48.138;21.002;2022-12-07T00:12:37;99166.50;;;0.94;90.66
76126;BME280;65174;48.138;21.002;2022-12-07T00:15:39;99150.88;;;1.06;88.73
76126;BME280;65174;48.138;21.002;2022-12-07T00:18:42;99158.50;;;1.32;88.02
76126;BME280;65174;48.138;21.002;2022-12-07T00:21:44;99162.06;;;1.53;86.65
76126;BME280;65174;48.138;21.002;2022-12-07T00:24:46;99167.72;;;1.63;86.30
76126;BME280;65174;48.138;21.002;2022-12-07T00:27:48;99161.72;;;1.65;85.69
76126;BME280;65174;48.138;21.002;2022-12-07T00:30:50;99168.81;;;1.80;84.71
76126;BME280;65174;48.138;21.002;2022-12-07T00:33:52;99163.63;;;1.83;84.44
76126;BME280;65174;48.138;21.002;2022-12-07T00:36:54;99161.66;;;1.91;84.44
76126;BME280;65174;48.138;21.002;2022-12-07T00:39:56;99163.38;;;1.91;84.33
76126;BME280;65174;48.138;21.002;2022-12-07T00:42:58;99154.19;;;1.87;83.77
76126;BME280;65174;48.138;21.002;2022-12-07T00:46:00;99161.44;;;1.73;84.43
76126;BME280;65174;48.138;21.002;2022-12-07T00:49:02;99169.53;;;1.59;85.66
76126;BME280;65174;48.138;21.002;2022-12-07T00:52:04;99172.50;;;1.45;86.77
76126;BME280;65174;48.138;21.002;2022-12-07T00:55:07;99175.94;;;0.89;88.52
76126;BME280;65174;48.138;21.002;2022-12-07T00:58:09;99174.91;;;0.36;90.43
76126;BME280;65174;48.138;21.002;2022-12-07T01:01:11;99170.34;;;0.18;90.83
76126;BME280;65174;48.138;21.002;2022-12-07T01:04:13;99175.25;;;0.24;91.31
76126;BME280;65174;48.138;21.002;2022-12-07T01:07:15;99173.66;;;0.20;91.22
76126;BME280;65174;48.138;21.002;2022-12-07T01:10:17;99176.09;;;0.23;91.46
76126;BME280;65174;48.138;21.002;2022-12-07T01:13:19;99172.31;;;0.38;91.48
76126;BME280;65174;48.138;21.002;2022-12-07T01:16:22;99166.50;;;0.34;90.48
76126;BME280;65174;48.138;21.002;2022-12-07T01:19:25;99170.75;;;0.03;90.46
76126;BME280;65174;48.138;21.002;2022-12-07T01:22:27;99168.94;;;0.08;91.08
76126;BME280;65174;48.138;21.002;2022-12-07T01:25:29;99172.03;;;0.18;91.14
76126;BME280;65174;48.138;21.002;2022-12-07T01:28:31;99175.91;;;0.31;90.83
76126;BME280;65174;48.138;21.002;2022-12-07T01:31:33;99165.19;;;0.52;90.29
76126;BME280;65174;48.138;21.002;2022-12-07T01:34:35;99167.59;;;0.56;90.36
76126;BME280;65174;48.138;21.002;2022-12-07T01:37:38;99172.56;;;0.59;89.02
76126;BME280;65174;48.138;21.002;2022-12-07T01:40:40;99168.22;;;0.64;89.78
76126;BME280;65174;48.138;21.002;2022-12-07T01:47:11;99170.13;;;0.56;89.31
76126;BME280;65174;48.138;21.002;2022-12-07T01:50:14;99170.69;;;0.37;89.79
76126;BME280;65174;48.138;21.002;2022-12-07T01:53:16;99158.78;;;0.08;90.21
76126;BME280;65174;48.138;21.002;2022-12-07T01:56:22;99160.03;;;-0.07;91.60
76126;BME280;65174;48.138;21.002;2022-12-07T01:59:26;99161.63;;;-0.04;91.98
76126;BME280;65174;48.138;21.002;2022-12-07T02:02:38;99155.34;;;0.09;91.57
76126;BME280;65174;48.138;21.002;2022-12-07T02:05:47;99160.59;;;0.03;90.84
76126;BME280;65174;48.138;21.002;2022-12-07T02:08:52;99157.03;;;0.10;90.64
76126;BME280;65174;48.138;21.002;2022-12-07T02:11:55;99158.84;;;0.05;90.09
76126;BME280;65174;48.138;21.002;2022-12-07T02:14:57;99157.06;;;0.09;90.66
76126;BME280;65174;48.138;21.002;2022-12-07T02:18:07;99156.41;;;0.02;90.71
76126;BME280;65174;48.138;21.002;2022-12-07T02:25:04;99141.06;;;-0.26;92.21
76126;BME280;65174;48.138;21.002;2022-12-07T02:31:18;99143.84;;;-0.03;90.87
76126;BME280;65174;48.138;21.002;2022-12-07T02:34:31;99148.75;;;0.04;91.20
76126;BME280;65174;48.138;21.002;2022-12-07T02:38:18;99140.47;;;-0.03;91.28
76126;BME280;65174;48.138;21.002;2022-12-07T02:44:24;99140.75;;;0.19;91.27
76126;BME280;65174;48.138;21.002;2022-12-07T02:47:29;99147.97;;;0.32;90.86
76126;BME280;65174;48.138;21.002;2022-12-07T02:50:33;99132.47;;;0.12;90.61
76126;BME280;65174;48.138;21.002;2022-12-07T02:53:42;99134.34;;;0.06;90.91
76126;BME280;65174;48.138;21.002;2022-12-07T03:00:15;99137.38;;;0.18;91.30
76126;BME280;65174;48.138;21.002;2022-12-07T03:03:17;99123.84;;;0.18;91.76
76126;BME280;65174;48.138;21.002;2022-12-07T03:06:23;99128.88;;;0.19;92.20
76126;BME280;65174;48.138;21.002;2022-12-07T03:09:36;99125.09;;;0.03;91.84
76126;BME280;65174;48.138;21.002;2022-12-07T03:13:12;99127.91;;;0.25;91.71
76126;BME280;65174;48.138;21.002;2022-12-07T03:19:27;99122.59;;;0.32;90.70
76126;BME280;65174;48.138;21.002;2022-12-07T03:22:31;99122.94;;;0.20;92.43
76126;BME280;65174;48.138;21.002;2022-12-07T03:25:41;99114.59;;;0.46;91.10
76126;BME280;65174;48.138;21.002;2022-12-07T03:28:51;99116.06;;;0.54;90.76
76126;BME280;65174;48.138;21.002;2022-12-07T03:32:09;99120.72;;;0.68;90.63
76126;BME280;65174;48.138;21.002;2022-12-07T03:35:30;99116.56;;;0.93;89.70
76126;BME280;65174;48.138;21.002;2022-12-07T03:38:49;99109.72;;;0.95;89.08
76126;BME280;65174;48.138;21.002;2022-12-07T03:41:53;99110.47;;;0.99;88.66
76126;BME280;65174;48.138;21.002;2022-12-07T03:44:56;99097.09;;;0.94;89.72
76126;BME280;65174;48.138;21.002;2022-12-07T03:48:18;99109.72;;;0.95;89.40
76126;BME280;65174;48.138;21.002;2022-12-07T03:57:47;99125.41;;;0.52;90.50
76126;BME280;65174;48.138;21.002;2022-12-07T04:00:51;99123.09;;;0.45;91.47
76126;BME280;65174;48.138;21.002;2022-12-07T04:03:53;99120.66;;;0.11;92.51
76126;BME280;65174;48.138;21.002;2022-12-07T04:06:55;99125.66;;;0.13;92.34
76126;BME280;65174;48.138;21.002;2022-12-07T04:09:57;99122.50;;;0.05;92.79
76126;BME280;65174;48.138;21.002;2022-12-07T04:12:59;99134.88;;;0.17;92.87
76126;BME280;65174;48.138;21.002;2022-12-07T04:16:01;99128.22;;;0.13;92.26
76126;BME280;65174;48.138;21.002;2022-12-07T04:19:03;99131.56;;;0.13;92.70
76126;BME280;65174;48.138;21.002;2022-12-07T04:22:06;99128.47;;;0.04;92.83
76126;BME280;65174;48.138;21.002;2022-12-07T04:25:08;99124.41;;;-0.04;92.76
76126;BME280;65174;48.138;21.002;2022-12-07T04:28:10;99122.78;;;-0.05;93.54
76126;BME280;65174;48.138;21.002;2022-12-07T04:31:12;99120.75;;;0.07;92.59
76126;BME280;65174;48.138;21.002;2022-12-07T04:34:15;99121.31;;;0.18;92.55
76126;BME280;65174;48.138;21.002;2022-12-07T04:37:17;99124.50;;;0.24;92.48
76126;BME280;65174;48.138;21.002;2022-12-07T04:40:19;99129.53;;;0.27;92.24
76126;BME280;65174;48.138;21.002;2022-12-07T04:43:21;99121.97;;;0.24;92.64
76126;BME280;65174;48.138;21.002;2022-12-07T04:46:25;99125.25;;;0.28;92.55
76126;BME280;65174;48.138;21.002;2022-12-07T04:49:27;99124.69;;;0.18;93.14
76126;BME280;65174;48.138;21.002;2022-12-07T04:52:35;99117.78;;;0.23;92.37
76126;BME280;65174;48.138;21.002;2022-12-07T04:55:37;99120.56;;;0.14;92.58
76126;BME280;65174;48.138;21.002;2022-12-07T04:58:39;99117.88;;;0.20;93.31
76126;BME280;65174;48.138;21.002;2022-12-07T05:01:41;99115.88;;;0.31;92.45
76126;BME280;65174;48.138;21.002;2022-12-07T05:04:43;99119.97;;;0.35;92.63
76126;BME280;65174;48.138;21.002;2022-12-07T05:07:45;99114.69;;;0.43;92.99
76126;BME280;65174;48.138;21.002;2022-12-07T05:10:48;99121.06;;;0.27;92.46
76126;BME280;65174;48.138;21.002;2022-12-07T05:13:50;99121.44;;;0.44;92.73
76126;BME280;65174;48.138;21.002;2022-12-07T05:16:52;99105.72;;;0.31;92.50
76126;BME280;65174;48.138;21.002;2022-12-07T05:19:55;99117.22;;;0.43;92.50
76126;BME280;65174;48.138;21.002;2022-12-07T05:22:57;99114.38;;;0.53;92.51
76126;BME280;65174;48.138;21.002;2022-12-07T05:26:00;99114.50;;;0.49;92.60
76126;BME280;65174;48.138;21.002;2022-12-07T05:29:03;99119.38;;;0.56;91.38
76126;BME280;65174;48.138;21.002;2022-12-07T05:32:05;99115.53;;;0.43;91.72
76126;BME280;65174;48.138;21.002;2022-12-07T05:35:07;99119.69;;;0.46;92.02
76126;BME280;65174;48.138;21.002;2022-12-07T05:38:09;99119.03;;;0.38;92.51
76126;BME280;65174;48.138;21.002;2022-12-07T05:41:16;99112.84;;;0.48;91.86
76126;BME280;65174;48.138;21.002;2022-12-07T05:44:41;99115.28;;;0.52;92.39
76126;BME280;65174;48.138;21.002;2022-12-07T05:47:43;99110.09;;;0.55;91.58
76126;BME280;65174;48.138;21.002;2022-12-07T05:50:48;99115.91;;;0.59;91.52
76126;BME280;65174;48.138;21.002;2022-12-07T05:53:50;99102.25;;;0.63;91.00
76126;BME280;65174;48.138;21.002;2022-12-07T05:56:52;99112.50;;;0.60;92.00
76126;BME280;65174;48.138;21.002;2022-12-07T05:59:54;99117.53;;;0.61;91.02
76126;BME280;65174;48.138;21.002;2022-12-07T06:02:56;99112.16;;;0.43;92.28
76126;BME280;65174;48.138;21.002;2022-12-07T06:05:58;99117.75;;;0.54;92.26
76126;BME280;65174;48.138;21.002;2022-12-07T06:09:00;99105.75;;;0.59;92.18
76126;BME280;65174;48.138;21.002;2022-12-07T06:12:02;99108.28;;;0.59;92.07
76126;BME280;65174;48.138;21.002;2022-12-07T06:15:22;99092.56;;;0.48;91.60
76126;BME280;65174;48.138;21.002;2022-12-07T06:18:24;99107.97;;;0.69;92.49
76126;BME280;65174;48.138;21.002;2022-12-07T06:21:26;99111.13;;;0.77;91.83
76126;BME280;65174;48.138;21.002;2022-12-07T06:24:28;99115.25;;;0.82;91.43
76126;BME280;65174;48.138;21.002;2022-12-07T06:27:30;99112.59;;;0.85;91.44
76126;BME280;65174;48.138;21.002;2022-12-07T06:30:34;99110.75;;;0.90;91.24
76126;BME280;65174;48.138;21.002;2022-12-07T06:33:36;99113.25;;;0.91;91.14
76126;BME280;65174;48.138;21.002;2022-12-07T06:36:38;99112.13;;;1.00;90.77
76126;BME280;65174;48.138;21.002;2022-12-07T06:39:40;99099.22;;;0.79;91.58
76126;BME280;65174;48.138;21.002;2022-12-07T06:42:42;99105.38;;;0.99;91.40
76126;BME280;65174;48.138;21.002;2022-12-07T07:37:55;99118.97;;;1.24;91.94
76126;BME280;65174;48.138;21.002;2022-12-07T07:40:57;99104.63;;;1.23;91.21
76126;BME280;65174;48.138;21.002;2022-12-07T07:43:59;99114.69;;;1.26;91.02
76126;BME280;65174;48.138;21.002;2022-12-07T07:47:01;99112.84;;;1.31;91.58
76126;BME280;65174;48.138;21.002;2022-12-07T07:50:04;99120.38;;;1.34;91.69
76126;BME280;65174;48.138;21.002;2022-12-07T07:53:06;99113.81;;;1.27;91.20
76126;BME280;65174;48.138;21.002;2022-12-07T07:56:08;99108.44;;;1.36;91.46
76126;BME280;65174;48.138;21.002;2022-12-07T07:59:10;99107.13;;;1.49;90.49
76126;BME280;65174;48.138;21.002;2022-12-07T08:02:17;99113.41;;;1.65;90.88
76126;BME280;65174;48.138;21.002;2022-12-07T08:05:19;99118.44;;;1.91;89.72
76126;BME280;65174;48.138;21.002;2022-12-07T08:08:22;99116.63;;;1.95;89.64
76126;BME280;65174;48.138;21.002;2022-12-07T08:11:24;99115.25;;;2.09;89.34
76126;BME280;65174;48.138;21.002;2022-12-07T08:14:26;99117.25;;;2.24;89.67
76126;BME280;65174;48.138;21.002;2022-12-07T08:17:29;99120.25;;;2.35;89.36
76126;BME280;65174;48.138;21.002;2022-12-07T08:20:32;99119.25;;;2.39;89.60
76126;BME280;65174;48.138;21.002;2022-12-07T08:23:34;99117.38;;;2.45;89.60
76126;BME280;65174;48.138;21.002;2022-12-07T08:26:41;99127.25;;;2.52;89.96
76126;BME280;65174;48.138;21.002;2022-12-07T08:29:43;99137.59;;;2.71;89.58
76126;BME280;65174;48.138;21.002;2022-12-07T08:32:46;99131.50;;;2.75;88.48
76126;BME280;65174;48.138;21.002;2022-12-07T08:35:48;99126.72;;;2.67;89.05
76126;BME280;65174;48.138;21.002;2022-12-07T08:38:50;99125.47;;;2.77;88.83
76126;BME280;65174;48.138;21.002;2022-12-07T08:42:11;99133.00;;;2.80;89.51
76126;BME280;65174;48.138;21.002;2022-12-07T08:45:15;99141.81;;;2.93;89.03
76126;BME280;65174;48.138;21.002;2022-12-07T08:48:20;99133.75;;;3.05;88.73
76126;BME280;65174;48.138;21.002;2022-12-07T08:51:26;99139.22;;;3.16;88.54
76126;BME280;65174;48.138;21.002;2022-12-07T08:54:28;99134.63;;;3.04;88.76
76126;BME280;65174;48.138;21.002;2022-12-07T08:57:32;99139.00;;;3.01;88.58
76126;BME280;65174;48.138;21.002;2022-12-07T09:00:36;99137.97;;;2.62;90.21
76126;BME280;65174;48.138;21.002;2022-12-07T09:03:38;99141.00;;;2.48;89.43
76126;BME280;65174;48.138;21.002;2022-12-07T09:06:40;99134.19;;;2.49;89.87
76126;BME280;65174;48.138;21.002;2022-12-07T09:09:43;99128.28;;;2.00;90.82
76126;BME280;65174;48.138;21.002;2022-12-07T09:12:45;99121.53;;;1.99;91.58
76126;BME280;65174;48.138;21.002;2022-12-07T09:15:47;99115.81;;;2.17;90.85
76126;BME280;65174;48.138;21.002;2022-12-07T09:18:49;99121.72;;;2.18;91.29
76126;BME280;65174;48.138;21.002;2022-12-07T09:21:52;99116.81;;;2.36;90.66
76126;BME280;65174;48.138;21.002;2022-12-07T09:24:54;99118.25;;;2.43;89.83
76126;BME280;65174;48.138;21.002;2022-12-07T09:27:57;99115.47;;;2.50;89.47
76126;BME280;65174;48.138;21.002;2022-12-07T09:30:59;99101.69;;;2.78;88.95
76126;BME280;65174;48.138;21.002;2022-12-07T09:34:21;99112.28;;;3.11;88.83
76126;BME280;65174;48.138;21.002;2022-12-07T09:37:23;99103.78;;;3.32;87.96
76126;BME280;65174;48.138;21.002;2022-12-07T09:40:25;99101.22;;;3.32;88.08
76126;BME280;65174;48.138;21.002;2022-12-07T09:43:27;99101.69;;;3.42;88.03
76126;BME280;65174;48.138;21.002;2022-12-07T09:46:33;99096.72;;;3.59;87.69
76126;BME280;65174;48.138;21.002;2022-12-07T09:49:37;99102.50;;;3.22;88.16
76126;BME280;65174;48.138;21.002;2022-12-07T09:52:39;99101.91;;;3.15;89.71
76126;BME280;65174;48.138;21.002;2022-12-07T09:55:42;99098.25;;;3.01;90.04
76126;BME280;65174;48.138;21.002;2022-12-07T09:58:45;99084.25;;;2.89;90.48
76126;BME280;65174;48.138;21.002;2022-12-07T10:01:49;99097.69;;;3.14;89.39
76126;BME280;65174;48.138;21.002;2022-12-07T10:04:51;99092.84;;;3.08;90.24
76126;BME280;65174;48.138;21.002;2022-12-07T10:07:54;99095.63;;;3.24;89.75
76126;BME280;65174;48.138;21.002;2022-12-07T10:10:56;99094.50;;;3.51;88.79
76126;BME280;65174;48.138;21.002;2022-12-07T10:14:11;99089.41;;;3.51;88.52
76126;BME280;65174;48.138;21.002;2022-12-07T10:17:37;99089.19;;;3.76;88.09
76126;BME280;65174;48.138;21.002;2022-12-07T10:20:41;99086.47;;;3.80;88.09
76126;BME280;65174;48.138;21.002;2022-12-07T10:24:01;99081.81;;;4.09;87.15
76126;BME280;65174;48.138;21.002;2022-12-07T10:27:05;99082.56;;;4.31;82.14
76126;BME280;65174;48.138;21.002;2022-12-07T10:30:12;99082.69;;;4.65;78.94
76126;BME280;65174;48.138;21.002;2022-12-07T10:33:37;99073.25;;;4.84;78.10
76126;BME280;65174;48.138;21.002;2022-12-07T10:36:39;99079.88;;;5.07;78.19
76126;BME280;65174;48.138;21.002;2022-12-07T10:39:44;99078.66;;;5.14;77.31
76126;BME280;65174;48.138;21.002;2022-12-07T10:43:00;99077.25;;;5.25;77.56
76126;BME280;65174;48.138;21.002;2022-12-07T11:02:44;99063.91;;;5.70;74.47
76126;BME280;65174;48.138;21.002;2022-12-07T11:06:24;99064.63;;;5.56;75.80
76126;BME280;65174;48.138;21.002;2022-12-07T11:38:23;99048.94;;;5.80;69.82
76126;BME280;65174;48.138;21.002;2022-12-07T11:41:35;99042.56;;;5.88;70.16
76126;BME280;65174;48.138;21.002;2022-12-07T11:45:14;99040.75;;;5.73;69.11
76126;BME280;65174;48.138;21.002;2022-12-07T11:51:33;99043.41;;;5.72;71.30
76126;BME280;65174;48.138;21.002;2022-12-07T11:54:40;99040.75;;;5.73;69.98
76126;BME280;65174;48.138;21.002;2022-12-07T11:57:51;99032.47;;;5.68;68.79
76126;BME280;65174;48.138;21.002;2022-12-07T12:04:39;99031.66;;;5.68;68.83
76126;BME280;65174;48.138;21.002;2022-12-07T12:08:38;99030.13;;;5.63;68.07
76126;BME280;65174;48.138;21.002;2022-12-07T13:07:11;99024.75;;;5.52;67.03
76126;BME280;65174;48.138;21.002;2022-12-07T13:13:31;99024.81;;;5.51;66.90
76126;BME280;65174;48.138;21.002;2022-12-07T13:16:38;99037.84;;;5.46;66.95
76126;BME280;65174;48.138;21.002;2022-12-07T13:22:47;99012.72;;;5.37;67.66
76126;BME280;65174;48.138;21.002;2022-12-07T13:29:20;99020.41;;;5.37;62.92
76126;BME280;65174;48.138;21.002;2022-12-07T13:32:25;99020.53;;;5.34;63.53
76126;BME280;65174;48.138;21.002;2022-12-07T13:35:37;99025.50;;;5.37;64.26
76126;BME280;65174;48.138;21.002;2022-12-07T13:38:49;99026.47;;;5.35;63.76
76126;BME280;65174;48.138;21.002;2022-12-07T13:41:56;99023.19;;;5.33;62.23
76126;BME280;65174;48.138;21.002;2022-12-07T13:45:01;99023.19;;;5.33;63.58
76126;BME280;65174;48.138;21.002;2022-12-07T13:48:47;99019.94;;;5.29;62.83
76126;BME280;65174;48.138;21.002;2022-12-07T13:51:51;99011.00;;;5.21;63.66
76126;BME280;65174;48.138;21.002;2022-12-07T13:57:59;99015.13;;;5.06;64.98
76126;BME280;65174;48.138;21.002;2022-12-07T14:01:02;99019.25;;;4.92;65.46
76126;BME280;65174;48.138;21.002;2022-12-07T14:04:39;99030.06;;;4.61;67.03
76126;BME280;65174;48.138;21.002;2022-12-07T14:07:55;99028.09;;;4.49;68.21
76126;BME280;65174;48.138;21.002;2022-12-07T14:10:58;99032.31;;;4.50;69.84
76126;BME280;65174;48.138;21.002;2022-12-07T14:14:02;99036.44;;;4.34;70.91
76126;BME280;65174;48.138;21.002;2022-12-07T14:17:20;99048.59;;;4.10;71.27
76126;BME280;65174;48.138;21.002;2022-12-07T14:20:35;99050.69;;;4.00;71.74
76126;BME280;65174;48.138;21.002;2022-12-07T14:23:39;99044.44;;;3.89;72.28
76126;BME280;65174;48.138;21.002;2022-12-07T14:26:44;99047.69;;;3.72;71.77
76126;BME280;65174;48.138;21.002;2022-12-07T14:29:46;99044.66;;;3.64;71.39
76126;BME280;65174;48.138;21.002;2022-12-07T14:32:54;99050.44;;;3.68;72.03
76126;BME280;65174;48.138;21.002;2022-12-07T14:35:56;99041.78;;;3.52;70.28
76126;BME280;65174;48.138;21.002;2022-12-07T14:38:59;99059.41;;;3.56;68.27
76126;BME280;65174;48.138;21.002;2022-12-07T14:42:02;99047.66;;;3.54;68.33
76126;BME280;65174;48.138;21.002;2022-12-07T14:45:05;99058.28;;;3.43;69.06
76126;BME280;65174;48.138;21.002;2022-12-07T14:48:10;99054.00;;;3.23;70.65
76126;BME280;65174;48.138;21.002;2022-12-07T14:51:36;99062.84;;;3.15;72.45
76126;BME280;65174;48.138;21.002;2022-12-07T14:54:59;99060.28;;;3.15;72.52
76126;BME280;65174;48.138;21.002;2022-12-07T14:58:02;99064.88;;;3.07;73.31
76126;BME280;65174;48.138;21.002;2022-12-07T15:01:04;99063.97;;;3.08;74.60
76126;BME280;65174;48.138;21.002;2022-12-07T16:03:14;99105.34;;;2.93;76.19
76126;BME280;65174;48.138;21.002;2022-12-07T16:06:17;99106.41;;;3.09;76.02
76126;BME280;65174;48.138;21.002;2022-12-07T16:09:19;99099.88;;;3.02;76.23
76126;BME280;65174;48.138;21.002;2022-12-07T16:12:21;99101.56;;;3.03;76.75
76126;BME280;65174;48.138;21.002;2022-12-07T16:15:23;99098.66;;;3.12;75.80
76126;BME280;65174;48.138;21.002;2022-12-07T16:18:26;99099.22;;;3.18;75.99
76126;BME280;65174;48.138;21.002;2022-12-07T16:21:28;99098.69;;;3.10;76.29
76126;BME280;65174;48.138;21.002;2022-12-07T16:24:30;99107.50;;;3.03;75.79
76126;BME280;65174;48.138;21.002;2022-12-07T16:27:33;99098.75;;;3.09;75.89
76126;BME280;65174;48.138;21.002;2022-12-07T16:30:36;99096.97;;;3.11;74.89
76126;BME280;65174;48.138;21.002;2022-12-07T16:33:39;99098.00;;;3.29;74.93
76126;BME280;65174;48.138;21.002;2022-12-07T16:36:42;99091.22;;;3.28;74.95
76126;BME280;65174;48.138;21.002;2022-12-07T16:40:04;99090.72;;;3.40;74.22
76126;BME280;65174;48.138;21.002;2022-12-07T16:43:06;99099.59;;;3.51;72.90
76126;BME280;65174;48.138;21.002;2022-12-07T16:46:09;99096.13;;;3.52;72.33
76126;BME280;65174;48.138;21.002;2022-12-07T16:49:13;99096.28;;;3.49;72.58
76126;BME280;65174;48.138;21.002;2022-12-07T16:52:15;99094.94;;;3.41;72.96
76126;BME280;65174;48.138;21.002;2022-12-07T16:55:21;99098.38;;;3.40;73.49
76126;BME280;65174;48.138;21.002;2022-12-07T16:58:23;99111.34;;;3.34;73.82
76126;BME280;65174;48.138;21.002;2022-12-07T17:01:25;99111.00;;;3.21;73.88
76126;BME280;65174;48.138;21.002;2022-12-07T17:04:29;99102.00;;;3.12;74.21
76126;BME280;65174;48.138;21.002;2022-12-07T17:07:31;99102.56;;;2.99;74.47
76126;BME280;65174;48.138;21.002;2022-12-07T17:10:36;99106.91;;;2.97;74.34
76126;BME280;65174;48.138;21.002;2022-12-07T17:13:38;99106.28;;;2.90;74.70
76126;BME280;65174;48.138;21.002;2022-12-07T17:16:59;99105.47;;;2.90;73.91
76126;BME280;65174;48.138;21.002;2022-12-07T17:20:04;99107.88;;;2.71;74.82
76126;BME280;65174;48.138;21.002;2022-12-07T17:23:06;99112.06;;;2.51;76.30
76126;BME280;65174;48.138;21.002;2022-12-07T17:26:22;99113.44;;;2.36;76.59
76126;BME280;65174;48.138;21.002;2022-12-07T17:29:25;99118.91;;;2.25;77.51
76126;BME280;65174;48.138;21.002;2022-12-07T17:32:27;99118.47;;;2.14;77.75
76126;BME280;65174;48.138;21.002;2022-12-07T17:35:29;99119.75;;;2.01;78.23
76126;BME280;65174;48.138;21.002;2022-12-07T17:38:31;99115.78;;;1.94;78.29
76126;BME280;65174;48.138;21.002;2022-12-07T17:41:33;99124.44;;;1.89;78.24
76126;BME280;65174;48.138;21.002;2022-12-07T17:44:53;99117.66;;;1.89;77.87
76126;BME280;65174;48.138;21.002;2022-12-07T17:47:55;99125.44;;;1.85;77.86
76126;BME280;65174;48.138;21.002;2022-12-07T17:51:01;99133.91;;;1.85;78.48
76126;BME280;65174;48.138;21.002;2022-12-07T17:54:22;99127.63;;;1.71;79.14
76126;BME280;65174;48.138;21.002;2022-12-07T17:57:24;99121.53;;;1.50;79.65
76126;BME280;65174;48.138;21.002;2022-12-07T18:00:26;99135.75;;;1.29;80.63
76126;BME280;65174;48.138;21.002;2022-12-07T19:57:34;99163.44;;;0.54;82.07
76126;BME280;65174;48.138;21.002;2022-12-07T20:00:37;99166.53;;;0.63;82.36
76126;BME280;65174;48.138;21.002;2022-12-07T20:03:39;99179.25;;;0.91;80.03
76126;BME280;65174;48.138;21.002;2022-12-07T20:06:42;99175.69;;;0.97;79.80
76126;BME280;65174;48.138;21.002;2022-12-07T20:09:44;99172.81;;;1.09;78.72
76126;BME280;65174;48.138;21.002;2022-12-07T20:12:47;99172.50;;;1.19;78.07
76126;BME280;65174;48.138;21.002;2022-12-07T20:16:07;99188.00;;;1.10;79.19
76126;BME280;65174;48.138;21.002;2022-12-07T20:19:21;99173.53;;;0.85;80.17
76126;BME280;65174;48.138;21.002;2022-12-07T20:22:23;99182.28;;;0.74;81.94
76126;BME280;65174;48.138;21.002;2022-12-07T20:25:26;99193.78;;;0.57;82.10
76126;BME280;65174;48.138;21.002;2022-12-07T20:28:28;99188.09;;;0.49;83.02
76126;BME280;65174;48.138;21.002;2022-12-07T20:31:30;99192.63;;;0.38;83.65
76126;BME280;65174;48.138;21.002;2022-12-07T20:34:32;99189.91;;;0.15;84.38
76126;BME280;65174;48.138;21.002;2022-12-07T20:37:34;99184.59;;;0.22;84.16
76126;BME280;65174;48.138;21.002;2022-12-07T20:40:39;99187.97;;;0.23;83.69
76126;BME280;65174;48.138;21.002;2022-12-07T20:43:46;99175.03;;;0.32;82.99
76126;BME280;65174;48.138;21.002;2022-12-07T20:46:49;99184.38;;;0.31;82.93
76126;BME280;65174;48.138;21.002;2022-12-07T20:49:51;99195.59;;;0.53;81.44
76126;BME280;65174;48.138;21.002;2022-12-07T20:52:53;99189.25;;;0.68;80.11
76126;BME280;65174;48.138;21.002;2022-12-07T20:56:01;99192.63;;;0.68;80.19
76126;BME280;65174;48.138;21.002;2022-12-07T20:59:05;99204.69;;;0.60;81.11
76126;BME280;65174;48.138;21.002;2022-12-07T21:02:11;99195.94;;;0.41;82.06
76126;BME280;65174;48.138;21.002;2022-12-07T21:05:14;99202.25;;;0.27;81.92
76126;BME280;65174;48.138;21.002;2022-12-07T21:08:16;99206.50;;;-0.08;83.39
76126;BME280;65174;48.138;21.002;2022-12-07T21:11:19;99210.16;;;-0.18;83.82
76126;BME280;65174;48.138;21.002;2022-12-07T21:14:22;99214.38;;;-0.18;84.14
76126;BME280;65174;48.138;21.002;2022-12-07T21:17:24;99217.22;;;-0.30;84.08
76126;BME280;65174;48.138;21.002;2022-12-07T21:20:27;99214.88;;;-0.39;85.00
76126;BME280;65174;48.138;21.002;2022-12-07T21:23:29;99215.44;;;-0.27;84.04
76126;BME280;65174;48.138;21.002;2022-12-07T21:26:32;99226.47;;;-0.29;83.28
76126;BME280;65174;48.138;21.002;2022-12-07T21:29:35;99217.72;;;-0.16;83.05
76126;BME280;65174;48.138;21.002;2022-12-07T21:32:44;99227.53;;;-0.04;82.49
76126;BME280;65174;48.138;21.002;2022-12-07T21:35:46;99225.03;;;-0.06;82.00
76126;BME280;65174;48.138;21.002;2022-12-07T21:38:48;99225.41;;;-0.19;82.79
76126;BME280;65174;48.138;21.002;2022-12-07T21:41:51;99222.13;;;-0.24;82.97
76126;BME280;65174;48.138;21.002;2022-12-07T21:44:53;99224.72;;;-0.27;83.22
76126;BME280;65174;48.138;21.002;2022-12-07T21:47:54;99228.09;;;-0.27;83.17
76126;BME280;65174;48.138;21.002;2022-12-07T21:51:03;99221.28;;;-0.23;82.65
76126;BME280;65174;48.138;21.002;2022-12-07T21:54:05;99222.88;;;-0.21;82.49
